sensor_id;sensor_type;location;lat;lon;timestamp;P1;durP1;ratioP1;P2;durP2;ratioP2
60847;SDS011;46681;47.696;9.140;2024-01-10T00:01:43;17.50;;;12.50;;
60847;SDS011;46681;47.696;9.140;2024-01-10T00:04:09;18.63;;;13.33;;
60847;SDS011;46681;47.696;9.140;2024-01-10T00:06:35;20.50;;;14.27;;
60847;SDS011;46681;47.696;9.140;2024-01-10T00:09:01;20.20;;;14.10;;
60847;SDS011;46681;47.696;9.140;2024-01-10T00:11:27;17.50;;;13.60;;
60847;SDS011;46681;47.696;9.140;2024-01-10T00:13:53;17.53;;;13.20;;
60847;SDS011;46681;47.696;9.140;2024-01-10T00:16:18;16.43;;;13.27;;
60847;SDS011;46681;47.696;9.140;2024-01-10T00:18:44;17.83;;;13.23;;
60847;SDS011;46681;47.696;9.140;2024-01-10T00:21:10;17.43;;;12.60;;
60847;SDS011;46681;47.696;9.140;2024-01-10T00:23:36;17.97;;;14.00;;
60847;SDS011;46681;47.696;9.140;2024-01-10T00:26:06;17.03;;;12.70;;
60847;SDS011;46681;47.696;9.140;2024-01-10T00:28:36;16.50;;;12.47;;
60847;SDS011;46681;47.696;9.140;2024-01-10T00:31:02;17.27;;;12.63;;
60847;SDS011;46681;47.696;9.140;2024-01-10T00:33:31;17.37;;;12.93;;
60847;SDS011;46681;47.696;9.140;2024-01-10T00:36:00;15.83;;;12.57;;
60847;SDS011;46681;47.696;9.140;2024-01-10T00:38:32;15.53;;;12.63;;
60847;SDS011;46681;47.696;9.140;2024-01-10T00:40:58;15.07;;;11.67;;
60847;SDS011;46681;47.696;9.140;2024-01-10T00:43:25;16.77;;;12.37;;
60847;SDS011;46681;47.696;9.140;2024-01-10T00:45:52;17.63;;;12.80;;
60847;SDS011;46681;47.696;9.140;2024-01-10T00:48:24;17.30;;;12.43;;
60847;SDS011;46681;47.696;9.140;2024-01-10T00:50:51;17.07;;;12.70;;
60847;SDS011;46681;47.696;9.140;2024-01-10T00:53:18;16.43;;;12.33;;
60847;SDS011;46681;47.696;9.140;2024-01-10T00:55:44;16.67;;;12.53;;
60847;SDS011;46681;47.696;9.140;2024-01-10T00:58:11;16.23;;;12.93;;
60847;SDS011;46681;47.696;9.140;2024-01-10T01:00:36;17.37;;;12.97;;
60847;SDS011;46681;47.696;9.140;2024-01-10T01:03:02;16.40;;;12.63;;
60847;SDS011;46681;47.696;9.140;2024-01-10T01:05:31;16.47;;;13.20;;
60847;SDS011;46681;47.696;9.140;2024-01-10T01:07:57;16.83;;;12.83;;
60847;SDS011;46681;47.696;9.140;2024-01-10T01:10:22;16.77;;;13.53;;
60847;SDS011;46681;47.696;9.140;2024-01-10T01:12:54;16.70;;;12.67;;
60847;SDS011;46681;47.696;9.140;2024-01-10T01:15:21;16.33;;;13.03;;
60847;SDS011;46681;47.696;9.140;2024-01-10T01:17:48;17.40;;;13.33;;
60847;SDS011;46681;47.696;9.140;2024-01-10T01:20:14;15.97;;;12.43;;
60847;SDS011;46681;47.696;9.140;2024-01-10T01:22:40;15.53;;;12.63;;
60847;SDS011;46681;47.696;9.140;2024-01-10T01:25:07;18.00;;;13.63;;
60847;SDS011;46681;47.696;9.140;2024-01-10T01:27:37;16.20;;;12.60;;
60847;SDS011;46681;47.696;9.140;2024-01-10T01:30:04;15.97;;;13.20;;
60847;SDS011;46681;47.696;9.140;2024-01-10T01:32:31;16.67;;;12.83;;
60847;SDS011;46681;47.696;9.140;2024-01-10T01:35:01;18.67;;;14.43;;
60847;SDS011;46681;47.696;9.140;2024-01-10T01:37:32;17.47;;;13.03;;
60847;SDS011;46681;47.696;9.140;2024-01-10T01:39:57;16.30;;;13.00;;
60847;SDS011;46681;47.696;9.140;2024-01-10T01:42:23;17.10;;;13.77;;
60847;SDS011;46681;47.696;9.140;2024-01-10T01:44:49;16.70;;;13.40;;
60847;SDS011;46681;47.696;9.140;2024-01-10T01:47:15;15.83;;;12.13;;
60847;SDS011;46681;47.696;9.140;2024-01-10T01:49:41;18.00;;;13.13;;
60847;SDS011;46681;47.696;9.140;2024-01-10T01:52:07;17.30;;;13.07;;
60847;SDS011;46681;47.696;9.140;2024-01-10T01:54:33;17.80;;;13.77;;
60847;SDS011;46681;47.696;9.140;2024-01-10T01:57:00;16.17;;;12.93;;
60847;SDS011;46681;47.696;9.140;2024-01-10T01:59:26;18.03;;;14.03;;
60847;SDS011;46681;47.696;9.140;2024-01-10T02:01:52;17.50;;;13.30;;
60847;SDS011;46681;47.696;9.140;2024-01-10T02:04:27;19.30;;;14.27;;
60847;SDS011;46681;47.696;9.140;2024-01-10T02:06:58;20.13;;;14.60;;
60847;SDS011;46681;47.696;9.140;2024-01-10T02:09:24;18.73;;;13.20;;
60847;SDS011;46681;47.696;9.140;2024-01-10T02:11:52;17.07;;;13.03;;
60847;SDS011;46681;47.696;9.140;2024-01-10T02:14:18;18.23;;;12.80;;
60847;SDS011;46681;47.696;9.140;2024-01-10T02:16:43;18.97;;;14.37;;
60847;SDS011;46681;47.696;9.140;2024-01-10T02:19:19;17.97;;;13.40;;
60847;SDS011;46681;47.696;9.140;2024-01-10T02:21:49;18.93;;;13.97;;
60847;SDS011;46681;47.696;9.140;2024-01-10T02:24:18;21.90;;;14.63;;
60847;SDS011;46681;47.696;9.140;2024-01-10T02:26:43;19.43;;;14.00;;
60847;SDS011;46681;47.696;9.140;2024-01-10T02:29:09;19.97;;;13.13;;
60847;SDS011;46681;47.696;9.140;2024-01-10T02:31:34;20.33;;;13.47;;
60847;SDS011;46681;47.696;9.140;2024-01-10T02:34:00;18.23;;;13.67;;
60847;SDS011;46681;47.696;9.140;2024-01-10T02:36:26;18.47;;;13.77;;
60847;SDS011;46681;47.696;9.140;2024-01-10T02:38:54;20.87;;;14.37;;
60847;SDS011;46681;47.696;9.140;2024-01-10T02:41:26;18.93;;;12.50;;
60847;SDS011;46681;47.696;9.140;2024-01-10T02:43:55;18.00;;;13.33;;
60847;SDS011;46681;47.696;9.140;2024-01-10T02:46:21;19.07;;;14.10;;
60847;SDS011;46681;47.696;9.140;2024-01-10T02:48:48;20.87;;;13.30;;
60847;SDS011;46681;47.696;9.140;2024-01-10T02:51:15;18.03;;;13.60;;
60847;SDS011;46681;47.696;9.140;2024-01-10T02:53:42;17.10;;;13.33;;
60847;SDS011;46681;47.696;9.140;2024-01-10T02:56:08;19.37;;;14.30;;
60847;SDS011;46681;47.696;9.140;2024-01-10T02:58:34;20.40;;;14.13;;
60847;SDS011;46681;47.696;9.140;2024-01-10T03:01:02;19.77;;;14.07;;
60847;SDS011;46681;47.696;9.140;2024-01-10T03:03:27;18.83;;;13.80;;
